sensor_id;sensor_type;location;lat;lon;timestamp;pressure;altitude;pressure_sealevel;temperature;humidity
54872;BME280;43914;57.680;11.982;2022-09-17T00:01:16;98989.81;;;10.83;69.88
54872;BME280;43914;57.680;11.982;2022-09-17T00:03:53;98992.97;;;10.80;69.87
54872;BME280;43914;57.680;11.982;2022-09-17T00:06:22;98988.59;;;10.77;69.98
54872;BME280;43914;57.680;11.982;2022-09-17T00:08:51;99001.20;;;10.76;70.12
54872;BME280;43914;57.680;11.982;2022-09-17T00:11:27;98994.64;;;10.72;70.12
54872;BME280;43914;57.680;11.982;2022-09-17T00:13:57;99004.05;;;10.72;70.17
54872;BME280;43914;57.680;11.982;2022-09-17T00:16:28;98999.94;;;10.70;70.15
54872;BME280;43914;57.680;11.982;2022-09-17T00:18:56;99001.28;;;10.70;70.22
54872;BME280;43914;57.680;11.982;2022-09-17T00:21:24;99007.41;;;10.67;70.18
54872;BME280;43914;57.680;11.982;2022-09-17T00:23:55;99011.44;;;10.67;70.23
54872;BME280;43914;57.680;11.982;2022-09-17T00:26:22;99005.47;;;10.65;70.28
54872;BME280;43914;57.680;11.982;2022-09-17T00:28:54;99002.95;;;10.61;70.32
54872;BME280;43914;57.680;11.982;2022-09-17T00:31:22;99004.30;;;10.61;70.32
54872;BME280;43914;57.680;11.982;2022-09-17T00:33:51;99002.36;;;10.59;70.29
54872;BME280;43914;57.680;11.982;2022-09-17T00:36:17;99003.63;;;10.57;70.37
54872;BME280;43914;57.680;11.982;2022-09-17T00:38:50;99012.22;;;10.56;70.46
54872;BME280;43914;57.680;11.982;2022-09-17T00:41:18;99008.35;;;10.52;70.45
54872;BME280;43914;57.680;11.982;2022-09-17T00:43:51;99014.77;;;10.51;70.46
54872;BME280;43914;57.680;11.982;2022-09-17T00:46:43;99016.87;;;10.49;70.54
54872;BME280;43914;57.680;11.982;2022-09-17T00:49:16;99024.84;;;10.46;70.70
54872;BME280;43914;57.680;11.982;2022-09-17T00:52:05;99024.25;;;10.44;70.80
54872;BME280;43914;57.680;11.982;2022-09-17T00:54:39;99029.24;;;10.41;70.81
54872;BME280;43914;57.680;11.982;2022-09-17T00:57:08;99023.78;;;10.38;70.85
54872;BME280;43914;57.680;11.982;2022-09-17T00:59:34;99022.36;;;10.35;70.88
54872;BME280;43914;57.680;11.982;2022-09-17T01:02:01;99025.28;;;10.34;70.97
54872;BME280;43914;57.680;11.982;2022-09-17T01:04:27;99035.94;;;10.31;71.10
54872;BME280;43914;57.680;11.982;2022-09-17T01:10:23;99032.16;;;10.30;71.04
54872;BME280;43914;57.680;11.982;2022-09-17T01:13:09;99033.50;;;10.30;70.94
54872;BME280;43914;57.680;11.982;2022-09-17T01:15:59;99036.39;;;10.28;70.96
54872;BME280;43914;57.680;11.982;2022-09-17T01:21:44;99042.72;;;10.24;71.03
54872;BME280;43914;57.680;11.982;2022-09-17T01:33:15;99053.47;;;10.15;71.55
54872;BME280;43914;57.680;11.982;2022-09-17T01:38:28;99055.41;;;10.08;71.94
54872;BME280;43914;57.680;11.982;2022-09-17T01:41:03;99053.98;;;10.05;71.91
54872;BME280;43914;57.680;11.982;2022-09-17T01:43:57;99052.88;;;10.04;72.07
54872;BME280;43914;57.680;11.982;2022-09-17T01:46:45;99055.77;;;10.02;72.19
54872;BME280;43914;57.680;11.982;2022-09-17T01:49:15;99063.23;;;10.00;72.30
54872;BME280;43914;57.680;11.982;2022-09-17T01:51:45;99059.35;;;9.96;72.45
54872;BME280;43914;57.680;11.982;2022-09-17T01:54:19;99067.10;;;9.95;72.62
54872;BME280;43914;57.680;11.982;2022-09-17T01:59:51;99065.91;;;9.91;72.86
54872;BME280;43914;57.680;11.982;2022-09-17T02:02:35;99060.69;;;9.87;72.99
54872;BME280;43914;57.680;11.982;2022-09-17T02:05:39;99062.53;;;9.86;73.06
54872;BME280;43914;57.680;11.982;2022-09-17T02:08:27;99066.80;;;9.85;73.02
54872;BME280;43914;57.680;11.982;2022-09-17T02:11:09;99063.48;;;9.82;73.03
54872;BME280;43914;57.680;11.982;2022-09-17T02:13:49;99063.94;;;9.79;73.19
54872;BME280;43914;57.680;11.982;2022-09-17T02:16:21;99059.84;;;9.77;73.22
54872;BME280;43914;57.680;11.982;2022-09-17T02:19:05;99061.09;;;9.74;73.21
54872;BME280;43914;57.680;11.982;2022-09-17T02:24:27;99068.55;;;9.72;73.39
54872;BME280;43914;57.680;11.982;2022-09-17T02:27:18;99073.41;;;9.73;73.46
54872;BME280;43914;57.680;11.982;2022-09-17T02:29:53;99072.27;;;9.71;73.39
54872;BME280;43914;57.680;11.982;2022-09-17T02:32:19;99071.23;;;9.72;73.48
54872;BME280;43914;57.680;11.982;2022-09-17T02:34:46;99073.02;;;9.69;73.48
54872;BME280;43914;57.680;11.982;2022-09-17T02:37:12;99072.71;;;9.68;73.45
54872;BME280;43914;57.680;11.982;2022-09-17T02:39:43;99076.73;;;9.68;73.47
54872;BME280;43914;57.680;11.982;2022-09-17T02:42:30;99074.05;;;9.68;73.47
54872;BME280;43914;57.680;11.982;2022-09-17T02:45:25;99073.45;;;9.66;73.60
54872;BME280;43914;57.680;11.982;2022-09-17T02:53:32;99066.66;;;9.63;73.86
54872;BME280;43914;57.680;11.982;2022-09-17T02:56:06;99063.17;;;9.63;73.78
54872;BME280;43914;57.680;11.982;2022-09-17T02:58:53;99062.03;;;9.61;73.81
54872;BME280;43914;57.680;11.982;2022-09-17T03:01:45;99062.77;;;9.59;73.89
54872;BME280;43914;57.680;11.982;2022-09-17T03:04:14;99065.90;;;9.56;74.04
54872;BME280;43914;57.680;11.982;2022-09-17T03:06:44;99068.52;;;9.53;74.13
54872;BME280;43914;57.680;11.982;2022-09-17T03:09:10;99081.09;;;9.53;74.19
54872;BME280;43914;57.680;11.982;2022-09-17T03:11:37;99070.27;;;9.50;74.32
54872;BME280;43914;57.680;11.982;2022-09-17T03:14:03;99074.83;;;9.50;74.37
54872;BME280;43914;57.680;11.982;2022-09-17T03:16:31;99074.22;;;9.48;74.44
54872;BME280;43914;57.680;11.982;2022-09-17T03:18:57;99076.51;;;9.44;74.61
54872;BME280;43914;57.680;11.982;2022-09-17T03:21:23;99075.10;;;9.42;74.69
54872;BME280;43914;57.680;11.982;2022-09-17T03:23:50;99070.24;;;9.41;74.79
54872;BME280;43914;57.680;11.982;2022-09-17T03:26:18;99082.55;;;9.40;74.93
54872;BME280;43914;57.680;11.982;2022-09-17T03:28:44;99079.77;;;9.37;74.91
54872;BME280;43914;57.680;11.982;2022-09-17T03:31:11;99077.09;;;9.37;74.97
54872;BME280;43914;57.680;11.982;2022-09-17T03:33:37;99082.14;;;9.36;74.96
54872;BME280;43914;57.680;11.982;2022-09-17T03:36:03;99075.88;;;9.33;75.00
54872;BME280;43914;57.680;11.982;2022-09-17T03:38:29;99078.27;;;9.32;75.01
54872;BME280;43914;57.680;11.982;2022-09-17T03:41:02;99075.28;;;9.31;75.00
54872;BME280;43914;57.680;11.982;2022-09-17T03:43:32;99075.78;;;9.30;75.01
54872;BME280;43914;57.680;11.982;2022-09-17T03:45:58;99084.36;;;9.30;74.95
54872;BME280;43914;57.680;11.982;2022-09-17T03:48:25;99086.73;;;9.29;74.89
54872;BME280;43914;57.680;11.982;2022-09-17T03:50:51;99085.09;;;9.28;74.92
54872;BME280;43914;57.680;11.982;2022-09-17T03:53:17;99080.24;;;9.27;74.88
54872;BME280;43914;57.680;11.982;2022-09-17T03:55:43;99086.95;;;9.27;74.90
54872;BME280;43914;57.680;11.982;2022-09-17T03:58:10;99087.48;;;9.27;74.88
54872;BME280;43914;57.680;11.982;2022-09-17T04:00:36;99084.40;;;9.23;74.93
54872;BME280;43914;57.680;11.982;2022-09-17T04:03:04;99090.20;;;9.20;74.98
54872;BME280;43914;57.680;11.982;2022-09-17T04:05:31;99091.73;;;9.18;75.07
54872;BME280;43914;57.680;11.982;2022-09-17T04:07:58;99088.76;;;9.17;75.19
54872;BME280;43914;57.680;11.982;2022-09-17T04:10:24;99089.49;;;9.15;75.13
54872;BME280;43914;57.680;11.982;2022-09-17T04:12:50;99093.74;;;9.14;75.13
54872;BME280;43914;57.680;11.982;2022-09-17T04:15:17;99087.48;;;9.11;75.20
54872;BME280;43914;57.680;11.982;2022-09-17T04:17:43;99086.87;;;9.08;75.24
54872;BME280;43914;57.680;11.982;2022-09-17T04:20:09;99099.44;;;9.08;75.25
54872;BME280;43914;57.680;11.982;2022-09-17T04:22:35;99095.34;;;9.05;75.34
54872;BME280;43914;57.680;11.982;2022-09-17T04:25:02;99097.19;;;9.05;75.32
54872;BME280;43914;57.680;11.982;2022-09-17T04:27:28;99103.05;;;9.04;75.33
54872;BME280;43914;57.680;11.982;2022-09-17T04:29:54;99094.11;;;9.01;75.29
54872;BME280;43914;57.680;11.982;2022-09-17T04:32:20;99100.00;;;9.01;75.23
54872;BME280;43914;57.680;11.982;2022-09-17T04:34:47;99097.75;;;8.98;75.30
54872;BME280;43914;57.680;11.982;2022-09-17T04:37:13;99103.62;;;8.97;75.32
54872;BME280;43914;57.680;11.982;2022-09-17T04:39:39;99103.84;;;8.95;75.40
54872;BME280;43914;57.680;11.982;2022-09-17T04:42:05;99101.06;;;8.93;75.37
54872;BME280;43914;57.680;11.982;2022-09-17T04:44:32;99110.44;;;8.93;75.37
54872;BME280;43914;57.680;11.982;2022-09-17T04:46:58;99097.78;;;8.91;75.40
54872;BME280;43914;57.680;11.982;2022-09-17T04:49:24;99107.69;;;8.90;75.41
54872;BME280;43914;57.680;11.982;2022-09-17T04:51:53;99103.88;;;8.89;75.47
54872;BME280;43914;57.680;11.982;2022-09-17T04:54:19;99108.09;;;8.87;75.45
54872;BME280;43914;57.680;11.982;2022-09-17T04:56:45;99109.13;;;8.86;75.61
54872;BME280;43914;57.680;11.982;2022-09-17T04:59:11;99112.84;;;8.85;75.55
54872;BME280;43914;57.680;11.982;2022-09-17T05:01:43;99113.88;;;8.84;75.54
54872;BME280;43914;57.680;11.982;2022-09-17T05:04:10;99115.83;;;8.86;75.51
54872;BME280;43914;57.680;11.982;2022-09-17T05:06:36;99113.75;;;8.88;75.49
54872;BME280;43914;57.680;11.982;2022-09-17T05:09:02;99110.06;;;8.89;75.34
54872;BME280;43914;57.680;11.982;2022-09-17T05:11:31;99117.37;;;8.91;75.28
54872;BME280;43914;57.680;11.982;2022-09-17T05:13:58;99113.35;;;8.91;75.23
54872;BME280;43914;57.680;11.982;2022-09-17T05:16:24;99116.64;;;8.93;75.17
54872;BME280;43914;57.680;11.982;2022-09-17T05:18:50;99124.55;;;8.98;75.03
54872;BME280;43914;57.680;11.982;2022-09-17T05:21:17;99126.70;;;8.98;75.02
54872;BME280;43914;57.680;11.982;2022-09-17T05:23:45;99122.48;;;9.00;74.95
54872;BME280;43914;57.680;11.982;2022-09-17T05:26:12;99129.78;;;9.02;74.83
54872;BME280;43914;57.680;11.982;2022-09-17T05:28:40;99132.33;;;9.06;74.71
54872;BME280;43914;57.680;11.982;2022-09-17T05:31:07;99132.94;;;9.08;74.60
54872;BME280;43914;57.680;11.982;2022-09-17T05:33:34;99132.73;;;9.09;74.53
54872;BME280;43914;57.680;11.982;2022-09-17T05:36:00;99128.59;;;9.14;74.38
54872;BME280;43914;57.680;11.982;2022-09-17T05:38:26;99134.55;;;9.16;74.18
54872;BME280;43914;57.680;11.982;2022-09-17T05:40:53;99135.27;;;9.20;74.08
54872;BME280;43914;57.680;11.982;2022-09-17T05:43:19;99136.17;;;9.23;73.85
54872;BME280;43914;57.680;11.982;2022-09-17T05:45:45;99136.47;;;9.24;73.73
54872;BME280;43914;57.680;11.982;2022-09-17T05:48:13;99141.16;;;9.29;73.60
54872;BME280;43914;57.680;11.982;2022-09-17T05:50:40;99147.97;;;9.32;73.48
54872;BME280;43914;57.680;11.982;2022-09-17T05:53:11;99140.53;;;9.34;73.51
54872;BME280;43914;57.680;11.982;2022-09-17T05:55:38;99143.81;;;9.36;73.38
54872;BME280;43914;57.680;11.982;2022-09-17T05:58:10;99146.06;;;9.39;73.24
54872;BME280;43914;57.680;11.982;2022-09-17T06:00:41;99147.27;;;9.43;73.00
54872;BME280;43914;57.680;11.982;2022-09-17T06:03:10;99154.14;;;9.48;72.93
54872;BME280;43914;57.680;11.982;2022-09-17T06:05:38;99150.72;;;9.50;72.67
54872;BME280;43914;57.680;11.982;2022-09-17T06:08:04;99152.02;;;9.57;72.52
54872;BME280;43914;57.680;11.982;2022-09-17T06:10:31;99157.79;;;9.61;72.43
54872;BME280;43914;57.680;11.982;2022-09-17T06:12:58;99160.84;;;9.64;72.50
54872;BME280;43914;57.680;11.982;2022-09-17T06:15:26;99160.94;;;9.67;72.28
54872;BME280;43914;57.680;11.982;2022-09-17T06:17:52;99161.09;;;9.72;72.02
54872;BME280;43914;57.680;11.982;2022-09-17T06:20:19;99156.34;;;9.74;72.10
54872;BME280;43914;57.680;11.982;2022-09-17T06:22:45;99153.81;;;9.79;72.05
54872;BME280;43914;57.680;11.982;2022-09-17T06:25:12;99158.44;;;9.81;71.75
54872;BME280;43914;57.680;11.982;2022-09-17T06:27:40;99159.97;;;9.87;71.86
54872;BME280;43914;57.680;11.982;2022-09-17T06:30:06;99166.55;;;9.91;71.62
54872;BME280;43914;57.680;11.982;2022-09-17T06:32:33;99162.58;;;9.93;71.22
54872;BME280;43914;57.680;11.982;2022-09-17T06:35:00;99165.06;;;9.95;70.90
54872;BME280;43914;57.680;11.982;2022-09-17T06:37:32;99165.36;;;9.96;70.89
54872;BME280;43914;57.680;11.982;2022-09-17T06:40:01;99169.24;;;10.00;70.72
54872;BME280;43914;57.680;11.982;2022-09-17T06:42:28;99168.50;;;10.02;70.60
54872;BME280;43914;57.680;11.982;2022-09-17T06:44:56;99166.72;;;10.05;70.60
54872;BME280;43914;57.680;11.982;2022-09-17T06:47:25;99170.00;;;10.07;70.52
54872;BME280;43914;57.680;11.982;2022-09-17T06:49:52;99171.20;;;10.11;70.18
54872;BME280;43914;57.680;11.982;2022-09-17T06:52:19;99170.99;;;10.13;70.02
54872;BME280;43914;57.680;11.982;2022-09-17T06:54:45;99168.40;;;10.16;69.77
54872;BME280;43914;57.680;11.982;2022-09-17T06:57:11;99170.94;;;10.20;69.97
54872;BME280;43914;57.680;11.982;2022-09-17T06:59:37;99170.50;;;10.23;69.68
54872;BME280;43914;57.680;11.982;2022-09-17T07:02:04;99171.99;;;10.28;69.09
54872;BME280;43914;57.680;11.982;2022-09-17T07:04:31;99173.42;;;10.31;69.11
54872;BME280;43914;57.680;11.982;2022-09-17T07:06:58;99166.17;;;10.31;68.69
54872;BME280;43914;57.680;11.982;2022-09-17T07:09:24;99174.62;;;10.35;68.66
54872;BME280;43914;57.680;11.982;2022-09-17T07:11:50;99174.98;;;10.38;68.71
54872;BME280;43914;57.680;11.982;2022-09-17T07:14:16;99175.16;;;10.44;68.54
54872;BME280;43914;57.680;11.982;2022-09-17T07:16:43;99171.22;;;10.46;68.34
54872;BME280;43914;57.680;11.982;2022-09-17T07:19:09;99174.59;;;10.51;68.20
54872;BME280;43914;57.680;11.982;2022-09-17T07:21:36;99176.59;;;10.56;68.26
54872;BME280;43914;57.680;11.982;2022-09-17T07:24:05;99177.28;;;10.60;68.10
54872;BME280;43914;57.680;11.982;2022-09-17T07:26:32;99174.73;;;10.65;68.12
54872;BME280;43914;57.680;11.982;2022-09-17T07:28:58;99170.64;;;10.72;68.35
54872;BME280;43914;57.680;11.982;2022-09-17T07:31:24;99184.97;;;10.75;67.55
54872;BME280;43914;57.680;11.982;2022-09-17T07:33:50;99178.19;;;10.82;67.01
54872;BME280;43914;57.680;11.982;2022-09-17T07:36:16;99180.17;;;10.87;67.37
54872;BME280;43914;57.680;11.982;2022-09-17T07:38:43;99180.11;;;10.93;67.02
54872;BME280;43914;57.680;11.982;2022-09-17T07:41:13;99181.30;;;10.97;66.63
54872;BME280;43914;57.680;11.982;2022-09-17T07:43:42;99189.28;;;11.04;66.02
54872;BME280;43914;57.680;11.982;2022-09-17T07:46:17;99185.93;;;11.09;66.47
54872;BME280;43914;57.680;11.982;2022-09-17T07:48:46;99190.31;;;11.13;65.75
54872;BME280;43914;57.680;11.982;2022-09-17T07:51:20;99187.46;;;11.17;66.12
54872;BME280;43914;57.680;11.982;2022-09-17T07:53:45;99191.72;;;11.24;66.29
54872;BME280;43914;57.680;11.982;2022-09-17T07:56:12;99203.79;;;11.34;65.77
54872;BME280;43914;57.680;11.982;2022-09-17T07:58:38;99198.25;;;11.38;64.98
54872;BME280;43914;57.680;11.982;2022-09-17T08:01:06;99193.03;;;11.43;64.12
54872;BME280;43914;57.680;11.982;2022-09-17T08:03:35;99178.16;;;11.40;63.95
54872;BME280;43914;57.680;11.982;2022-09-17T08:06:08;99187.37;;;11.54;64.12
54872;BME280;43914;57.680;11.982;2022-09-17T08:08:41;99189.97;;;11.61;64.49
54872;BME280;43914;57.680;11.982;2022-09-17T08:11:20;99198.55;;;11.69;63.96
54872;BME280;43914;57.680;11.982;2022-09-17T08:13:49;99187.39;;;11.75;62.82
54872;BME280;43914;57.680;11.982;2022-09-17T08:16:16;99194.53;;;11.81;62.07
54872;BME280;43914;57.680;11.982;2022-09-17T08:18:44;99192.51;;;11.86;62.97
54872;BME280;43914;57.680;11.982;2022-09-17T08:21:13;99201.05;;;11.95;62.78
54872;BME280;43914;57.680;11.982;2022-09-17T08:23:42;99193.20;;;12.03;62.77
54872;BME280;43914;57.680;11.982;2022-09-17T08:26:20;99202.45;;;12.07;60.92
54872;BME280;43914;57.680;11.982;2022-09-17T08:28:51;99196.70;;;12.15;61.16
54872;BME280;43914;57.680;11.982;2022-09-17T08:31:23;99201.23;;;12.24;61.91
54872;BME280;43914;57.680;11.982;2022-09-17T08:33:51;99193.27;;;12.29;61.15
54872;BME280;43914;57.680;11.982;2022-09-17T08:36:18;99195.09;;;12.38;61.64
54872;BME280;43914;57.680;11.982;2022-09-17T08:38:45;99199.60;;;12.47;60.09
54872;BME280;43914;57.680;11.982;2022-09-17T08:44:20;99200.36;;;12.57;59.93
54872;BME280;43914;57.680;11.982;2022-09-17T08:46:53;99206.95;;;12.63;59.53
54872;BME280;43914;57.680;11.982;2022-09-17T08:49:47;99206.55;;;12.69;58.18
54872;BME280;43914;57.680;11.982;2022-09-17T09:07:19;99208.73;;;12.96;55.75
54872;BME280;43914;57.680;11.982;2022-09-17T09:12:34;99202.16;;;13.04;55.93
54872;BME280;43914;57.680;11.982;2022-09-17T09:15:07;99200.13;;;13.11;56.33
54872;BME280;43914;57.680;11.982;2022-09-17T09:17:46;99209.96;;;13.17;55.36
54872;BME280;43914;57.680;11.982;2022-09-17T09:20:25;99207.36;;;13.22;55.15
54872;BME280;43914;57.680;11.982;2022-09-17T09:23:02;99202.83;;;13.25;54.41
54872;BME280;43914;57.680;11.982;2022-09-17T09:25:32;99205.36;;;13.30;53.63
54872;BME280;43914;57.680;11.982;2022-09-17T09:34:06;99203.55;;;13.47;54.09
54872;BME280;43914;57.680;11.982;2022-09-17T09:36:33;99206.88;;;13.52;52.73
54872;BME280;43914;57.680;11.982;2022-09-17T09:39:23;99211.25;;;13.55;53.75
54872;BME280;43914;57.680;11.982;2022-09-17T09:44:10;99213.69;;;13.71;53.97
54872;BME280;43914;57.680;11.982;2022-09-17T09:55:21;99207.51;;;13.88;52.13
54872;BME280;43914;57.680;11.982;2022-09-17T09:57:50;99202.73;;;13.93;52.24
54872;BME280;43914;57.680;11.982;2022-09-17T10:03:19;99215.55;;;14.00;52.03
54872;BME280;43914;57.680;11.982;2022-09-17T10:06:03;99222.14;;;14.07;50.91
54872;BME280;43914;57.680;11.982;2022-09-17T10:08:36;99220.30;;;14.10;49.38
54872;BME280;43914;57.680;11.982;2022-09-17T10:13:47;99204.97;;;14.16;49.59
54872;BME280;43914;57.680;11.982;2022-09-17T10:16:19;99213.75;;;14.23;48.79
54872;BME280;43914;57.680;11.982;2022-09-17T10:18:51;99211.13;;;14.28;49.31
54872;BME280;43914;57.680;11.982;2022-09-17T10:21:38;99204.51;;;14.38;51.05
54872;BME280;43914;57.680;11.982;2022-09-17T10:24:27;99215.75;;;14.50;51.00
54872;BME280;43914;57.680;11.982;2022-09-17T10:27:00;99203.39;;;14.54;48.32
54872;BME280;43914;57.680;11.982;2022-09-17T10:29:29;99206.12;;;14.56;49.03
54872;BME280;43914;57.680;11.982;2022-09-17T10:31:56;99208.37;;;14.62;49.08
54872;BME280;43914;57.680;11.982;2022-09-17T10:34:27;99200.61;;;14.68;48.91
54872;BME280;43914;57.680;11.982;2022-09-17T10:36:55;99198.00;;;14.74;48.01
54872;BME280;43914;57.680;11.982;2022-09-17T10:39:36;99200.77;;;14.79;47.97
54872;BME280;43914;57.680;11.982;2022-09-17T10:42:14;99204.30;;;14.79;47.12
54872;BME280;43914;57.680;11.982;2022-09-17T10:44:55;99207.61;;;14.84;47.61
54872;BME280;43914;57.680;11.982;2022-09-17T10:47:33;99192.23;;;14.87;48.22
54872;BME280;43914;57.680;11.982;2022-09-17T10:50:05;99196.19;;;15.02;49.15
54872;BME280;43914;57.680;11.982;2022-09-17T10:52:37;99192.23;;;15.12;48.40
54872;BME280;43914;57.680;11.982;2022-09-17T11:04:11;99193.64;;;15.39;46.66
54872;BME280;43914;57.680;11.982;2022-09-17T11:12:39;99198.64;;;15.53;46.13
54872;BME280;43914;57.680;11.982;2022-09-17T11:18:27;99203.91;;;15.65;45.64
54872;BME280;43914;57.680;11.982;2022-09-17T11:21:21;99197.45;;;15.68;46.31
54872;BME280;43914;57.680;11.982;2022-09-17T11:30:03;99199.45;;;15.81;46.95
54872;BME280;43914;57.680;11.982;2022-09-17T11:32:33;99203.94;;;15.95;48.17
54872;BME280;43914;57.680;11.982;2022-09-17T11:35:18;99198.34;;;16.07;47.47
54872;BME280;43914;57.680;11.982;2022-09-17T11:40:45;99195.70;;;16.14;47.64
54872;BME280;43914;57.680;11.982;2022-09-17T11:46:13;99200.17;;;16.34;49.04
54872;BME280;43914;57.680;11.982;2022-09-17T11:51:40;99196.69;;;16.41;49.50
54872;BME280;43914;57.680;11.982;2022-09-17T12:00:04;99205.00;;;16.29;49.28
54872;BME280;43914;57.680;11.982;2022-09-17T12:02:57;99194.74;;;16.36;49.67
54872;BME280;43914;57.680;11.982;2022-09-17T12:05:35;99203.74;;;16.39;48.99
54872;BME280;43914;57.680;11.982;2022-09-17T12:08:19;99199.95;;;16.40;48.90
54872;BME280;43914;57.680;11.982;2022-09-17T12:11:18;99209.19;;;16.44;49.14
54872;BME280;43914;57.680;11.982;2022-09-17T12:14:10;99205.92;;;16.45;48.46
54872;BME280;43914;57.680;11.982;2022-09-17T12:16:39;99206.23;;;16.49;49.19
54872;BME280;43914;57.680;11.982;2022-09-17T12:19:36;99199.25;;;16.61;49.35
54872;BME280;43914;57.680;11.982;2022-09-17T12:24:51;99200.17;;;16.82;48.54
54872;BME280;43914;57.680;11.982;2022-09-17T12:30:18;99199.41;;;16.94;48.07
54872;BME280;43914;57.680;11.982;2022-09-17T12:36:31;99208.52;;;17.21;46.61
54872;BME280;43914;57.680;11.982;2022-09-17T12:39:28;99206.61;;;17.26;46.63
54872;BME280;43914;57.680;11.982;2022-09-17T12:41:53;99200.14;;;17.45;47.08
54872;BME280;43914;57.680;11.982;2022-09-17T12:44:55;99199.38;;;17.68;46.31
54872;BME280;43914;57.680;11.982;2022-09-17T12:56:09;99200.23;;;18.15;43.34
54872;BME280;43914;57.680;11.982;2022-09-17T13:07:38;99193.00;;;18.92;44.14
54872;BME280;43914;57.680;11.982;2022-09-17T13:14:00;99189.05;;;19.29;43.18
54872;BME280;43914;57.680;11.982;2022-09-17T13:22:06;99187.50;;;20.00;40.30
54872;BME280;43914;57.680;11.982;2022-09-17T13:24:43;99184.05;;;20.19;41.01
54872;BME280;43914;57.680;11.982;2022-09-17T13:27:26;99188.46;;;20.44;39.50
54872;BME280;43914;57.680;11.982;2022-09-17T13:43:11;99195.42;;;21.26;37.92
54872;BME280;43914;57.680;11.982;2022-09-17T13:48:32;99198.55;;;21.58;36.12
54872;BME280;43914;57.680;11.982;2022-09-17T13:54:02;99203.44;;;21.80;36.46
54872;BME280;43914;57.680;11.982;2022-09-17T13:56:40;99202.86;;;22.00;35.33
54872;BME280;43914;57.680;11.982;2022-09-17T13:59:10;99191.00;;;22.04;34.09
54872;BME280;43914;57.680;11.982;2022-09-17T14:10:47;99193.48;;;22.67;33.35
54872;BME280;43914;57.680;11.982;2022-09-17T14:12:51;99192.91;;;22.82;33.62
54872;BME280;43914;57.680;11.982;2022-09-17T14:23:53;99191.72;;;23.53;32.07
54872;BME280;43914;57.680;11.982;2022-09-17T14:26:42;99184.53;;;23.54;31.75
54872;BME280;43914;57.680;11.982;2022-09-17T14:29:24;99195.41;;;23.59;32.32
54872;BME280;43914;57.680;11.982;2022-09-17T14:31:54;99193.66;;;23.75;31.16
54872;BME280;43914;57.680;11.982;2022-09-17T14:34:25;99200.27;;;23.85;30.86
54872;BME280;43914;57.680;11.982;2022-09-17T14:36:53;99200.95;;;23.91;31.42
54872;BME280;43914;57.680;11.982;2022-09-17T14:39:25;99190.93;;;23.98;31.18
54872;BME280;43914;57.680;11.982;2022-09-17T14:41:53;99195.17;;;23.92;29.97
54872;BME280;43914;57.680;11.982;2022-09-17T14:44:23;99195.44;;;24.05;30.29
54872;BME280;43914;57.680;11.982;2022-09-17T14:47:01;99196.59;;;24.24;30.90
54872;BME280;43914;57.680;11.982;2022-09-17T14:49:36;99192.81;;;24.23;30.94
54872;BME280;43914;57.680;11.982;2022-09-17T14:55:18;99199.61;;;24.45;29.46
54872;BME280;43914;57.680;11.982;2022-09-17T14:57:56;99200.96;;;24.37;30.03
54872;BME280;43914;57.680;11.982;2022-09-17T15:00:35;99200.55;;;24.09;30.04
54872;BME280;43914;57.680;11.982;2022-09-17T15:03:02;99213.88;;;23.90;30.14
54872;BME280;43914;57.680;11.982;2022-09-17T15:05:32;99205.09;;;23.43;30.38
54872;BME280;43914;57.680;11.982;2022-09-17T15:08:16;99198.35;;;22.70;31.33
54872;BME280;43914;57.680;11.982;2022-09-17T15:13:30;99203.22;;;21.36;33.33
54872;BME280;43914;57.680;11.982;2022-09-17T15:16:27;99197.68;;;20.75;34.40
54872;BME280;43914;57.680;11.982;2022-09-17T15:19:00;99201.71;;;20.27;35.26
54872;BME280;43914;57.680;11.982;2022-09-17T15:21:38;99195.32;;;19.70;36.11
54872;BME280;43914;57.680;11.982;2022-09-17T15:29:42;99210.55;;;18.39;38.79
54872;BME280;43914;57.680;11.982;2022-09-17T15:32:11;99211.12;;;18.18;39.58
54872;BME280;43914;57.680;11.982;2022-09-17T15:34:39;99220.88;;;17.96;39.80
54872;BME280;43914;57.680;11.982;2022-09-17T15:37:17;99220.30;;;17.68;40.57
54872;BME280;43914;57.680;11.982;2022-09-17T15:39:50;99211.54;;;17.42;40.90
54872;BME280;43914;57.680;11.982;2022-09-17T15:42:22;99220.73;;;17.21;41.26
54872;BME280;43914;57.680;11.982;2022-09-17T15:44:52;99217.66;;;17.04;41.75
54872;BME280;43914;57.680;11.982;2022-09-17T15:47:55;99215.42;;;16.91;42.06
54872;BME280;43914;57.680;11.982;2022-09-17T15:50:28;99214.80;;;16.76;42.58
54872;BME280;43914;57.680;11.982;2022-09-17T15:55:40;99216.37;;;16.69;45.55
54872;BME280;43914;57.680;11.982;2022-09-17T16:08:54;99220.62;;;16.52;48.39
54872;BME280;43914;57.680;11.982;2022-09-17T16:11:31;99224.41;;;16.51;49.85
54872;BME280;43914;57.680;11.982;2022-09-17T16:13:59;99230.02;;;16.39;50.27
54872;BME280;43914;57.680;11.982;2022-09-17T16:16:33;99226.11;;;16.22;50.75
54872;BME280;43914;57.680;11.982;2022-09-17T16:19:02;99226.83;;;16.09;51.70
54872;BME280;43914;57.680;11.982;2022-09-17T16:21:30;99220.70;;;15.92;52.58
54872;BME280;43914;57.680;11.982;2022-09-17T16:23:56;99223.78;;;15.76;53.11
54872;BME280;43914;57.680;11.982;2022-09-17T16:26:30;99227.44;;;15.62;53.99
54872;BME280;43914;57.680;11.982;2022-09-17T16:29:12;99224.63;;;15.51;54.07
54872;BME280;43914;57.680;11.982;2022-09-17T16:31:37;99224.78;;;15.42;54.53
54872;BME280;43914;57.680;11.982;2022-09-17T16:34:04;99228.45;;;15.31;54.90
54872;BME280;43914;57.680;11.982;2022-09-17T16:36:30;99235.11;;;15.20;55.36
54872;BME280;43914;57.680;11.982;2022-09-17T16:38:57;99236.60;;;15.11;55.89
54872;BME280;43914;57.680;11.982;2022-09-17T16:41:24;99229.39;;;14.97;56.17
54872;BME280;43914;57.680;11.982;2022-09-17T16:43:50;99232.20;;;14.82;57.09
54872;BME280;43914;57.680;11.982;2022-09-17T16:46:16;99232.34;;;14.73;57.17